Time;durP1;ratioP1;P1;durP2;ratioP2;P2;SDS_P1;SDS_P2;PMS_P1;PMS_P2;Temp;Humidity;BMP_temperature;BMP_pressure;BME280_temperature;BME280_humidity;BME280_pressure;Samples;Min_cycle;Max_cycle;Signal;HPM_P1;HPM_P2
2023/10/31 00:01:35;;;;;;;1.45;0.40;;;14.90;99.90;;;;;;4993646;28;20034;-36
2023/10/31 00:04:00;;;;;;;0.90;0.40;;;14.90;99.90;;;;;;4993246;28;20031;-36
2023/10/31 00:06:26;;;;;;;0.65;0.50;;;14.90;99.90;;;;;;4993721;28;20113;-39
2023/10/31 00:08:52;;;;;;;0.73;0.45;;;14.90;99.90;;;;;;4993864;28;20060;-39
2023/10/31 00:11:17;;;;;;;0.88;0.50;;;14.90;99.90;;;;;;4993962;28;20026;-40
2023/10/31 00:13:43;;;;;;;0.63;0.43;;;14.90;99.90;;;;;;4994068;28;20050;-37
2023/10/31 00:16:09;;;;;;;0.50;0.30;;;14.90;99.90;;;;;;4993770;28;20502;-36
2023/10/31 00:18:34;;;;;;;0.43;0.40;;;14.90;99.90;;;;;;4993565;28;20038;-36
2023/10/31 00:21:00;;;;;;;0.20;0.20;;;14.90;99.90;;;;;;4993648;28;20072;-40
2023/10/31 00:23:26;;;;;;;0.50;0.40;;;14.90;99.90;;;;;;4993654;28;20018;-39
2023/10/31 00:25:51;;;;;;;0.40;0.30;;;14.90;99.90;;;;;;4993357;28;20274;-36
2023/10/31 00:28:17;;;;;;;0.43;0.30;;;14.90;99.90;;;;;;4993434;28;20109;-42
2023/10/31 00:30:42;;;;;;;0.85;0.28;;;14.90;99.90;;;;;;4993523;28;20029;-39
2023/10/31 00:33:08;;;;;;;0.73;0.52;;;14.90;99.90;;;;;;4976287;28;20030;-40
2023/10/31 00:35:34;;;;;;;1.00;0.43;;;14.90;99.90;;;;;;4993324;28;20030;-40
2023/10/31 00:37:59;;;;;;;0.68;0.35;;;14.90;99.90;;;;;;4993318;28;20157;-39
2023/10/31 00:40:26;;;;;;;0.60;0.30;;;14.90;99.90;;;;;;4993216;28;20052;-42
2023/10/31 00:42:52;;;;;;;0.35;0.30;;;14.90;99.90;;;;;;4993280;28;20022;-40
2023/10/31 00:45:17;;;;;;;0.65;0.30;;;14.90;99.90;;;;;;4993019;28;20037;-38
2023/10/31 00:47:43;;;;;;;1.95;0.52;;;14.90;99.90;;;;;;4993119;28;20061;-39
2023/10/31 00:50:09;;;;;;;1.02;0.30;;;14.90;99.90;;;;;;4992945;28;20510;-39
2023/10/31 00:52:35;;;;;;;1.02;0.38;;;14.90;99.90;;;;;;4975535;28;20033;-40
2023/10/31 00:55:01;;;;;;;0.45;0.20;;;14.90;99.90;;;;;;4992806;28;20030;-42
2023/10/31 00:57:26;;;;;;;0.50;0.22;;;14.80;99.90;;;;;;4992913;28;20089;-38
2023/10/31 00:59:52;;;;;;;2.58;0.63;;;14.80;99.90;;;;;;4992841;28;20022;-42
2023/10/31 01:02:17;;;;;;;0.55;0.20;;;14.90;99.90;;;;;;4975395;28;20037;-40
2023/10/31 01:04:43;;;;;;;0.40;0.30;;;14.90;99.90;;;;;;4992804;28;20030;-40
2023/10/31 01:07:12;;;;;;;1.05;0.22;;;14.90;99.90;;;;;;4992740;28;20357;-42
2023/10/31 01:09:38;;;;;;;0.40;0.30;;;14.90;99.90;;;;;;4992700;28;20109;-40
2023/10/31 01:12:04;;;;;;;0.20;0.20;;;14.80;99.90;;;;;;4992997;28;20015;-37
2023/10/31 01:14:30;;;;;;;0.95;0.40;;;14.80;99.90;;;;;;4992405;28;20026;-38
2023/10/31 01:16:56;;;;;;;0.20;0.20;;;14.80;99.90;;;;;;4992515;28;20022;-42
2023/10/31 01:19:21;;;;;;;0.70;0.40;;;14.80;99.90;;;;;;4992642;28;20027;-40
2023/10/31 01:21:47;;;;;;;0.40;0.22;;;14.80;99.90;;;;;;4992523;28;20515;-42
2023/10/31 01:24:12;;;;;;;0.52;0.20;;;14.80;99.90;;;;;;4992414;28;20022;-36
2023/10/31 01:26:38;;;;;;;1.95;0.40;;;14.80;99.90;;;;;;4992307;28;20030;-41
2023/10/31 01:29:04;;;;;;;0.95;0.20;;;14.80;99.90;;;;;;4992351;28;20033;-40
2023/10/31 01:31:29;;;;;;;0.63;0.40;;;14.80;99.90;;;;;;4992444;28;20395;-40
2023/10/31 01:33:55;;;;;;;2.47;0.30;;;14.80;99.90;;;;;;4992456;28;20041;-39
2023/10/31 01:36:26;;;;;;;0.82;0.25;;;14.80;99.90;;;;;;4974707;28;20133;-42
2023/10/31 01:38:51;;;;;;;1.05;0.35;;;14.80;99.90;;;;;;4992299;28;20108;-39
2023/10/31 01:41:17;;;;;;;0.20;0.20;;;14.80;99.90;;;;;;4992232;28;20481;-40
2023/10/31 01:43:42;;;;;;;1.55;0.30;;;14.80;99.90;;;;;;4974751;28;20037;-42
2023/10/31 01:46:08;;;;;;;0.43;0.20;;;14.80;99.90;;;;;;4992149;28;20057;-39
2023/10/31 01:48:34;;;;;;;0.73;0.22;;;14.80;99.90;;;;;;4991967;28;20022;-39
2023/10/31 01:51:02;;;;;;;0.30;0.20;;;14.80;99.90;;;;;;4975277;28;20026;-42
2023/10/31 01:53:30;;;;;;;0.15;0.15;;;14.80;99.90;;;;;;4991987;28;20038;-39
2023/10/31 01:55:56;;;;;;;1.17;0.20;;;14.80;99.90;;;;;;4991864;28;20030;-39
2023/10/31 01:58:28;;;;;;;0.50;0.20;;;14.80;99.90;;;;;;4991893;28;20029;-42
2023/10/31 02:00:55;;;;;;;0.22;0.20;;;14.80;99.90;;;;;;4992030;28;20182;-42
2023/10/31 02:03:20;;;;;;;0.30;0.20;;;14.80;99.90;;;;;;4992006;28;20097;-40
2023/10/31 02:05:46;;;;;;;0.22;0.20;;;14.80;99.90;;;;;;4991731;28;20607;-36
2023/10/31 02:08:12;;;;;;;0.30;0.20;;;14.80;99.90;;;;;;4991777;28;20046;-43
2023/10/31 02:10:37;;;;;;;0.55;0.20;;;14.80;99.90;;;;;;4991932;28;20499;-43
2023/10/31 02:13:17;;;;;;;0.43;0.28;;;14.80;99.90;;;;;;4991897;28;20094;-37
2023/10/31 02:15:44;;;;;;;0.35;0.20;;;14.80;99.90;;;;;;4991843;28;20439;-39
2023/10/31 02:18:10;;;;;;;1.33;0.20;;;14.80;99.90;;;;;;4991742;28;20045;-42
2023/10/31 02:20:36;;;;;;;1.63;0.20;;;14.80;99.90;;;;;;4992206;28;20392;-40
2023/10/31 02:23:02;;;;;;;0.22;0.20;;;14.80;99.90;;;;;;4991866;28;20026;-45
2023/10/31 02:25:28;;;;;;;0.10;0.10;;;14.80;99.90;;;;;;4992147;28;20049;-45
2023/10/31 02:27:54;;;;;;;0.60;0.30;;;14.80;99.90;;;;;;4995765;28;20030;-40
2023/10/31 02:30:20;;;;;;;0.70;0.30;;;14.80;99.90;;;;;;4995671;28;20040;-42
2023/10/31 02:32:46;;;;;;;0.57;0.20;;;14.80;99.90;;;;;;4995602;28;20391;-40
2023/10/31 02:35:12;;;;;;;0.95;0.30;;;14.70;99.90;;;;;;4995554;28;20098;-42
2023/10/31 02:37:37;;;;;;;0.57;0.30;;;14.80;99.90;;;;;;4995548;28;20150;-42
2023/10/31 02:40:04;;;;;;;0.75;0.20;;;14.80;99.90;;;;;;4995490;28;20428;-40
2023/10/31 02:42:29;;;;;;;0.70;0.50;;;14.80;99.90;;;;;;4995502;28;20057;-36
2023/10/31 02:44:55;;;;;;;0.50;0.25;;;14.80;99.90;;;;;;4995372;28;20054;-40
2023/10/31 02:47:20;;;;;;;0.47;0.30;;;14.70;99.90;;;;;;4995266;28;20498;-39
2023/10/31 02:49:46;;;;;;;0.52;0.30;;;14.80;99.90;;;;;;4995296;28;20038;-42
2023/10/31 02:52:12;;;;;;;0.25;0.20;;;14.80;99.90;;;;;;4995398;28;20065;-39
2023/10/31 02:54:37;;;;;;;1.10;0.22;;;14.80;99.90;;;;;;4995675;28;20022;-42
2023/10/31 02:57:03;;;;;;;0.30;0.20;;;14.80;99.90;;;;;;4995146;28;20468;-36
2023/10/31 02:59:29;;;;;;;0.32;0.20;;;14.80;99.90;;;;;;4995192;28;20073;-40
2023/10/31 03:01:56;;;;;;;0.50;0.30;;;14.80;99.90;;;;;;4995035;28;20030;-40
2023/10/31 03:04:22;;;;;;;0.60;0.38;;;14.80;99.90;;;;;;4995133;28;20029;-41
2023/10/31 03:06:47;;;;;;;0.57;0.30;;;14.80;99.90;;;;;;4994859;28;20034;-40
2023/10/31 03:09:13;;;;;;;0.20;0.20;;;14.80;99.90;;;;;;4995106;28;20081;-37
2023/10/31 03:11:39;;;;;;;0.45;0.20;;;14.70;99.90;;;;;;4977886;28;20018;-44
2023/10/31 03:14:04;;;;;;;0.43;0.22;;;14.80;99.90;;;;;;4994979;28;20105;-41
2023/10/31 03:16:30;;;;;;;0.20;0.20;;;14.80;99.90;;;;;;4994632;28;20074;-40
2023/10/31 03:18:56;;;;;;;1.27;0.40;;;14.70;99.90;;;;;;4994793;28;20472;-36
2023/10/31 03:21:22;;;;;;;0.88;0.30;;;14.70;99.90;;;;;;4994841;28;20050;-42
2023/10/31 03:23:49;;;;;;;0.30;0.20;;;14.70;99.90;;;;;;4994918;28;20027;-42
2023/10/31 03:26:15;;;;;;;0.98;0.40;;;14.70;99.90;;;;;;4994514;28;20507;-52
2023/10/31 03:28:42;;;;;;;0.40;0.22;;;14.70;99.90;;;;;;4994675;28;20479;-37
2023/10/31 03:31:09;;;;;;;0.40;0.30;;;14.70;99.90;;;;;;4994474;28;20019;-42
2023/10/31 03:33:34;;;;;;;0.40;0.30;;;14.70;99.90;;;;;;4994587;28;20499;-42
2023/10/31 03:36:00;;;;;;;0.20;0.10;;;14.70;99.90;;;;;;4994401;28;20038;-39
2023/10/31 03:38:25;;;;;;;0.55;0.20;;;14.70;99.90;;;;;;4994141;28;20033;-42
2023/10/31 03:40:51;;;;;;;0.43;0.22;;;14.70;99.90;;;;;;4994401;28;20093;-41
2023/10/31 03:43:17;;;;;;;0.52;0.28;;;14.70;99.90;;;;;;4994430;28;20471;-40
2023/10/31 03:45:42;;;;;;;0.88;0.30;;;14.70;99.90;;;;;;4994074;28;20043;-42
2023/10/31 03:48:08;;;;;;;0.50;0.20;;;14.70;99.90;;;;;;4994085;28;20018;-39
2023/10/31 03:50:34;;;;;;;0.40;0.30;;;14.70;99.90;;;;;;4994362;28;20058;-39
2023/10/31 03:52:59;;;;;;;0.60;0.20;;;14.70;99.90;;;;;;4994179;28;20018;-40
2023/10/31 03:55:25;;;;;;;0.70;0.20;;;14.70;99.90;;;;;;4994110;28;20100;-42
2023/10/31 03:57:51;;;;;;;0.20;0.20;;;14.70;99.90;;;;;;4994155;28;20495;-38
2023/10/31 04:00:16;;;;;;;0.10;0.10;;;14.70;99.90;;;;;;4994032;28;20179;-40
2023/10/31 04:02:42;;;;;;;1.25;0.30;;;14.70;99.90;;;;;;4994043;28;20030;-42
2023/10/31 04:05:08;;;;;;;0.85;0.35;;;14.70;99.90;;;;;;4993921;28;20027;-40
2023/10/31 04:07:34;;;;;;;1.05;0.30;;;14.70;99.90;;;;;;4994043;28;20019;-40
2023/10/31 04:09:59;;;;;;;0.43;0.28;;;14.70;99.90;;;;;;4994218;28;20054;-42
2023/10/31 04:12:25;;;;;;;0.77;0.32;;;14.70;99.90;;;;;;4993860;28;20046;-41
2023/10/31 04:14:51;;;;;;;0.63;0.22;;;14.70;99.90;;;;;;4993657;28;20034;-42
2023/10/31 04:17:16;;;;;;;1.17;0.40;;;14.70;99.90;;;;;;4993944;28;20034;-39
2023/10/31 04:19:42;;;;;;;0.60;0.30;;;14.70;99.90;;;;;;4993662;28;20097;-41
2023/10/31 04:22:07;;;;;;;0.25;0.20;;;14.70;99.90;;;;;;4993750;28;20050;-37
2023/10/31 04:24:33;;;;;;;1.83;0.20;;;14.70;99.90;;;;;;4993916;28;20511;-42
2023/10/31 04:26:59;;;;;;;0.65;0.28;;;14.60;99.90;;;;;;4993446;28;20022;-37
2023/10/31 04:29:24;;;;;;;0.57;0.20;;;14.70;99.90;;;;;;4993446;28;20023;-40
2023/10/31 04:31:50;;;;;;;0.50;0.30;;;14.70;99.90;;;;;;4993550;28;20022;-41
2023/10/31 04:34:16;;;;;;;0.40;0.20;;;14.70;99.90;;;;;;4993535;28;20054;-39
2023/10/31 04:36:41;;;;;;;3.95;0.20;;;14.70;99.90;;;;;;4993355;28;20094;-39
2023/10/31 04:39:07;;;;;;;0.73;0.30;;;14.70;99.90;;;;;;4993288;28;20465;-42
2023/10/31 04:41:32;;;;;;;0.85;0.30;;;14.70;99.90;;;;;;4993270;28;20535;-41
2023/10/31 04:43:58;;;;;;;0.73;0.20;;;14.70;99.90;;;;;;4993214;28;20113;-40
2023/10/31 04:46:27;;;;;;;0.95;0.20;;;14.70;99.90;;;;;;4992972;28;20041;-42
2023/10/31 04:48:53;;;;;;;0.28;0.20;;;14.70;99.90;;;;;;4992526;28;20414;-42
2023/10/31 04:51:19;;;;;;;0.30;0.30;;;14.70;99.90;;;;;;4993145;28;20063;-44
2023/10/31 04:53:44;;;;;;;0.28;0.10;;;14.70;99.90;;;;;;4993057;28;20022;-44
2023/10/31 04:56:14;;;;;;;0.10;0.10;;;14.60;99.90;;;;;;4975446;28;20084;-36
2023/10/31 04:58:40;;;;;;;1.08;0.40;;;14.70;99.90;;;;;;4992849;28;20258;-39
2023/10/31 05:01:10;;;;;;;0.22;0.10;;;14.60;99.90;;;;;;4992926;28;20023;-39
2023/10/31 05:03:36;;;;;;;0.57;0.20;;;14.70;99.90;;;;;;4992926;28;20109;-42
2023/10/31 05:06:03;;;;;;;0.30;0.20;;;14.70;99.90;;;;;;4992660;28;20105;-39
2023/10/31 05:08:29;;;;;;;0.20;0.20;;;14.60;99.90;;;;;;4992705;28;20041;-42
2023/10/31 05:10:55;;;;;;;0.52;0.30;;;14.60;99.90;;;;;;4992850;28;20031;-39
2023/10/31 05:13:20;;;;;;;0.40;0.20;;;14.60;99.90;;;;;;4992711;28;20045;-36
2023/10/31 05:15:46;;;;;;;2.40;0.30;;;14.60;99.90;;;;;;4992610;28;20101;-39
2023/10/31 05:18:11;;;;;;;0.65;0.20;;;14.60;99.90;;;;;;4992564;28;20023;-41
2023/10/31 05:20:37;;;;;;;1.08;0.20;;;14.60;99.90;;;;;;4992638;28;20102;-39
2023/10/31 05:23:03;;;;;;;0.57;0.30;;;14.60;99.90;;;;;;4992575;28;20053;-39
2023/10/31 05:25:28;;;;;;;1.10;0.35;;;14.60;99.90;;;;;;4992400;28;20030;-40
2023/10/31 05:27:54;;;;;;;1.30;0.30;;;14.60;99.90;;;;;;4992325;28;20034;-40
2023/10/31 05:30:19;;;;;;;0.32;0.20;;;14.60;99.90;;;;;;4992581;28;20420;-42
2023/10/31 05:32:45;;;;;;;0.40;0.20;;;14.60;99.90;;;;;;4992390;28;20030;-42
2023/10/31 05:35:11;;;;;;;0.90;0.30;;;14.60;99.90;;;;;;4992290;28;20056;-42
2023/10/31 05:37:36;;;;;;;0.52;0.30;;;14.60;99.90;;;;;;4992258;28;20034;-39
2023/10/31 05:40:02;;;;;;;1.45;0.28;;;14.60;99.90;;;;;;4992271;28;20506;-39
2023/10/31 05:42:28;;;;;;;0.20;0.17;;;14.60;99.90;;;;;;4992121;28;20050;-40
2023/10/31 05:44:54;;;;;;;0.45;0.30;;;14.60;99.90;;;;;;4992108;28;20045;-39
2023/10/31 05:47:21;;;;;;;0.68;0.40;;;14.60;99.90;;;;;;4992158;28;20038;-39
2023/10/31 05:49:47;;;;;;;0.52;0.30;;;14.50;99.90;;;;;;4992052;28;20030;-39
2023/10/31 05:52:12;;;;;;;0.40;0.20;;;14.50;99.90;;;;;;4992174;28;20100;-42
2023/10/31 05:54:38;;;;;;;0.50;0.32;;;14.50;99.90;;;;;;4992161;28;20058;-40
2023/10/31 05:57:04;;;;;;;0.73;0.30;;;14.60;99.90;;;;;;4991777;28;20105;-39
2023/10/31 05:59:29;;;;;;;0.85;0.40;;;14.60;99.90;;;;;;4992004;28;20022;-42
2023/10/31 06:01:55;;;;;;;0.70;0.20;;;14.50;99.90;;;;;;4992054;28;20018;-42
2023/10/31 06:04:21;;;;;;;0.20;0.20;;;14.60;99.90;;;;;;4991982;28;20049;-38
2023/10/31 06:06:46;;;;;;;0.43;0.30;;;14.60;99.90;;;;;;4991716;28;20041;-36
2023/10/31 06:09:14;;;;;;;2.28;0.50;;;14.60;99.90;;;;;;4991893;28;20026;-42
2023/10/31 06:11:42;;;;;;;0.20;0.20;;;14.50;99.90;;;;;;4991859;28;20018;-40
2023/10/31 06:14:07;;;;;;;0.63;0.30;;;14.50;99.90;;;;;;4991914;28;20488;-39
2023/10/31 06:16:39;;;;;;;0.52;0.40;;;14.50;99.90;;;;;;4991813;28;20076;-40
2023/10/31 06:19:04;;;;;;;0.50;0.28;;;14.50;99.90;;;;;;4992248;28;20081;-39
2023/10/31 06:21:30;;;;;;;0.15;0.10;;;14.50;99.90;;;;;;4991857;28;20060;-39
2023/10/31 06:23:55;;;;;;;0.90;0.30;;;14.50;99.90;;;;;;4991847;28;20389;-40
2023/10/31 06:26:21;;;;;;;0.98;0.30;;;14.50;99.90;;;;;;4991516;28;20026;-40
2023/10/31 06:28:46;;;;;;;0.32;0.30;;;14.50;99.90;;;;;;4991723;28;20592;-39
2023/10/31 06:31:12;;;;;;;0.35;0.10;;;14.50;99.90;;;;;;4991752;28;20034;-40
2023/10/31 06:33:38;;;;;;;0.50;0.20;;;14.50;99.90;;;;;;4992097;28;20018;-39
2023/10/31 06:36:04;;;;;;;0.50;0.20;;;14.50;99.90;;;;;;4991647;28;20037;-38
2023/10/31 06:38:29;;;;;;;1.23;0.30;;;14.50;99.90;;;;;;4991596;28;20098;-40
2023/10/31 06:40:57;;;;;;;0.65;0.30;;;14.50;99.90;;;;;;4991661;28;20441;-36
2023/10/31 06:43:22;;;;;;;0.85;0.10;;;14.50;99.90;;;;;;4991728;28;20113;-40
2023/10/31 06:45:48;;;;;;;0.25;0.15;;;14.50;99.90;;;;;;4974219;28;20113;-39
2023/10/31 06:48:13;;;;;;;0.68;0.20;;;14.50;99.90;;;;;;4991526;28;20499;-42
2023/10/31 06:50:39;;;;;;;0.90;0.28;;;14.50;99.90;;;;;;4991688;28;20038;-42
2023/10/31 06:53:04;;;;;;;0.50;0.20;;;14.50;99.90;;;;;;4991610;28;20027;-41
2023/10/31 06:55:30;;;;;;;0.40;0.20;;;14.50;99.90;;;;;;4991545;28;20093;-39
2023/10/31 06:57:56;;;;;;;0.50;0.30;;;14.50;99.90;;;;;;4991623;28;20030;-40
2023/10/31 07:00:21;;;;;;;0.90;0.30;;;14.50;99.90;;;;;;4991505;28;20464;-39
2023/10/31 07:02:47;;;;;;;0.60;0.30;;;14.50;99.90;;;;;;4991494;28;20038;-42
2023/10/31 07:05:13;;;;;;;0.22;0.22;;;14.50;99.90;;;;;;4991382;28;20023;-39
2023/10/31 07:07:39;;;;;;;0.30;0.20;;;14.50;99.90;;;;;;4991323;28;20014;-36
2023/10/31 07:10:05;;;;;;;1.27;0.40;;;14.50;99.90;;;;;;4991344;28;20030;-42
2023/10/31 07:12:31;;;;;;;0.50;0.30;;;14.50;99.90;;;;;;4993366;28;20066;-42
2023/10/31 07:14:58;;;;;;;0.30;0.20;;;14.50;99.90;;;;;;4994918;28;20061;-38
2023/10/31 07:17:25;;;;;;;0.45;0.25;;;14.50;99.90;;;;;;4994899;28;20029;-41
2023/10/31 07:19:50;;;;;;;0.95;0.30;;;14.50;99.90;;;;;;4994789;28;20080;-36
2023/10/31 07:22:16;;;;;;;0.40;0.20;;;14.50;99.90;;;;;;4994765;28;20030;-39
2023/10/31 07:24:42;;;;;;;1.70;0.32;;;14.50;99.90;;;;;;4994684;28;20050;-40
2023/10/31 07:27:08;;;;;;;0.95;0.30;;;14.50;99.90;;;;;;4977161;28;20023;-39
2023/10/31 07:29:34;;;;;;;0.60;0.30;;;14.50;99.90;;;;;;4994808;28;20026;-39
2023/10/31 07:32:00;;;;;;;0.77;0.20;;;14.50;99.90;;;;;;4994714;28;20523;-36
2023/10/31 07:34:25;;;;;;;1.42;0.30;;;14.50;99.90;;;;;;4994591;28;20396;-39
2023/10/31 07:36:51;;;;;;;0.32;0.20;;;14.50;99.90;;;;;;4994407;28;20387;-41
2023/10/31 07:39:17;;;;;;;1.13;0.30;;;14.50;99.90;;;;;;4994440;28;20551;-36
2023/10/31 07:41:42;;;;;;;0.77;0.20;;;14.50;99.90;;;;;;4994519;28;20031;-41
2023/10/31 07:44:08;;;;;;;1.63;0.40;;;14.50;99.90;;;;;;4994429;28;20033;-39
2023/10/31 07:46:34;;;;;;;0.52;0.28;;;14.50;99.90;;;;;;4994237;28;20026;-38
2023/10/31 07:51:26;;;;;;;0.77;0.35;;;14.50;99.90;;;;;;5009669;23;20419;-38
2023/10/31 07:53:52;;;;;;;0.77;0.30;;;14.50;99.90;;;;;;4974677;28;20022;-38
2023/10/31 07:56:22;;;;;;;0.70;0.20;;;14.50;99.90;;;;;;4974635;28;20026;-37
2023/10/31 07:58:51;;;;;;;0.98;0.30;;;14.50;99.90;;;;;;4975068;28;20128;-38
2023/10/31 08:01:21;;;;;;;0.50;0.30;;;14.50;99.90;;;;;;4974713;28;20490;-38
2023/10/31 08:03:49;;;;;;;0.70;0.20;;;14.50;99.90;;;;;;4974626;28;20034;-38
2023/10/31 08:06:15;;;;;;;0.90;0.50;;;14.50;99.90;;;;;;4974445;28;20085;-38
2023/10/31 08:08:41;;;;;;;0.70;0.30;;;14.50;99.90;;;;;;4974780;28;20031;-38
2023/10/31 08:11:10;;;;;;;0.60;0.32;;;14.50;99.90;;;;;;4974440;28;20026;-38
2023/10/31 08:13:37;;;;;;;0.75;0.30;;;14.50;99.90;;;;;;4974548;28;20110;-37
2023/10/31 08:16:05;;;;;;;0.30;0.20;;;14.50;99.90;;;;;;4974339;28;20038;-38
2023/10/31 08:18:30;;;;;;;0.40;0.20;;;14.50;99.90;;;;;;4974140;28;20384;-38
2023/10/31 08:20:56;;;;;;;0.20;0.20;;;14.50;99.90;;;;;;4974288;28;20026;-37
2023/10/31 08:23:22;;;;;;;0.85;0.30;;;14.50;99.90;;;;;;4973323;28;20035;-38
2023/10/31 08:25:47;;;;;;;0.88;0.30;;;14.50;99.90;;;;;;4974089;28;20027;-38
2023/10/31 08:28:13;;;;;;;1.20;0.40;;;14.50;99.90;;;;;;4974153;28;20018;-39
2023/10/31 08:30:39;;;;;;;0.43;0.22;;;14.60;99.90;;;;;;4974099;28;20062;-40
2023/10/31 08:33:04;;;;;;;0.75;0.50;;;14.50;99.90;;;;;;4974096;28;20027;-38
2023/10/31 08:35:31;;;;;;;0.40;0.20;;;14.50;99.90;;;;;;4974016;28;20499;-39
2023/10/31 08:37:57;;;;;;;1.27;0.20;;;14.60;99.90;;;;;;4974150;28;20039;-38
2023/10/31 08:40:23;;;;;;;0.63;0.30;;;14.60;99.90;;;;;;4974042;28;20022;-38
2023/10/31 08:42:48;;;;;;;1.08;0.43;;;14.50;99.90;;;;;;4974074;28;20503;-38
2023/10/31 08:45:15;;;;;;;0.20;0.20;;;14.60;99.90;;;;;;4973775;28;20038;-38
2023/10/31 08:47:40;;;;;;;0.50;0.30;;;14.60;99.90;;;;;;4973708;28;20110;-41
2023/10/31 08:50:08;;;;;;;0.40;0.25;;;14.60;99.90;;;;;;4973662;28;20178;-38
2023/10/31 08:52:34;;;;;;;0.65;0.40;;;14.50;99.90;;;;;;4973766;28;20027;-38
2023/10/31 08:55:00;;;;;;;0.57;0.20;;;14.50;99.90;;;;;;4973620;28;20019;-38
2023/10/31 08:57:25;;;;;;;0.47;0.25;;;14.60;99.90;;;;;;4973620;28;20097;-38
2023/10/31 08:59:51;;;;;;;0.65;0.32;;;14.60;99.90;;;;;;4973568;28;20046;-38
2023/10/31 09:02:17;;;;;;;1.20;0.40;;;14.60;99.90;;;;;;4973495;28;20031;-38
2023/10/31 09:04:42;;;;;;;3.83;0.57;;;14.60;99.90;;;;;;4973499;28;20480;-39
2023/10/31 09:07:08;;;;;;;0.63;0.30;;;14.60;99.90;;;;;;4973277;28;20388;-38
2023/10/31 09:09:33;;;;;;;1.10;0.50;;;14.60;99.90;;;;;;4973460;28;20148;-39
2023/10/31 09:11:59;;;;;;;3.50;0.70;;;14.70;99.90;;;;;;4973368;28;20023;-38
2023/10/31 09:14:25;;;;;;;4.25;0.88;;;14.50;99.90;;;;;;4973456;28;20247;-39
2023/10/31 09:16:50;;;;;;;3.63;1.10;;;14.50;99.90;;;;;;4973087;28;20023;-38
2023/10/31 09:19:16;;;;;;;4.25;0.90;;;14.40;99.90;;;;;;4973196;28;20365;-39
2023/10/31 09:21:41;;;;;;;1.58;0.65;;;14.40;99.90;;;;;;4973277;28;20022;-36
2023/10/31 09:24:08;;;;;;;4.63;0.90;;;14.40;99.90;;;;;;4973195;28;20437;-38
2023/10/31 09:26:33;;;;;;;3.28;0.70;;;14.50;99.90;;;;;;4972866;28;20031;-38
2023/10/31 09:28:59;;;;;;;2.85;1.00;;;14.50;99.90;;;;;;4973194;28;20023;-39
2023/10/31 09:31:25;;;;;;;1.75;0.70;;;14.50;99.90;;;;;;4972903;28;20033;-38
2023/10/31 09:33:50;;;;;;;1.77;0.57;;;14.50;99.90;;;;;;4973037;28;20031;-38
2023/10/31 09:36:16;;;;;;;1.77;0.55;;;14.60;99.90;;;;;;4972586;28;20114;-38
2023/10/31 09:38:42;;;;;;;2.78;0.82;;;14.60;99.90;;;;;;4973003;28;20027;-40
2023/10/31 09:41:07;;;;;;;5.15;0.80;;;14.60;99.90;;;;;;4972867;28;20108;-38
2023/10/31 09:43:33;;;;;;;2.35;0.77;;;14.60;99.90;;;;;;4972972;28;20030;-38
2023/10/31 09:46:03;;;;;;;3.22;0.70;;;14.70;99.90;;;;;;4972643;28;20038;-38
2023/10/31 09:48:29;;;;;;;2.03;0.90;;;14.60;99.90;;;;;;4972840;28;20560;-38
2023/10/31 09:50:55;;;;;;;2.50;0.95;;;14.60;99.90;;;;;;4972792;28;20125;-36
2023/10/31 09:53:21;;;;;;;3.05;0.70;;;14.70;99.90;;;;;;4972830;28;20101;-37
2023/10/31 09:55:48;;;;;;;3.15;0.68;;;14.70;99.90;;;;;;4972811;28;20066;-38
2023/10/31 09:58:14;;;;;;;1.52;0.70;;;14.70;99.90;;;;;;4972728;28;20361;-40
2023/10/31 10:00:40;;;;;;;1.85;0.80;;;14.70;99.90;;;;;;4972529;28;20373;-40
2023/10/31 10:03:09;;;;;;;3.85;0.88;;;14.70;99.90;;;;;;4972701;28;20117;-38
2023/10/31 10:05:35;;;;;;;3.70;0.70;;;14.60;99.90;;;;;;4972612;28;20035;-38
2023/10/31 10:08:01;;;;;;;2.83;1.00;;;14.70;99.90;;;;;;4972586;28;20377;-38
2023/10/31 10:10:27;;;;;;;1.70;0.80;;;14.60;99.90;;;;;;4972560;28;20154;-38
2023/10/31 10:12:53;;;;;;;1.38;0.55;;;14.70;99.90;;;;;;4972661;28;20276;-37
2023/10/31 10:15:19;;;;;;;6.15;0.90;;;14.60;99.90;;;;;;4972359;28;20030;-38
2023/10/31 10:17:54;;;;;;;1.77;0.68;;;14.70;99.90;;;;;;4972431;28;20150;-38
2023/10/31 10:20:19;;;;;;;3.13;0.60;;;14.60;99.90;;;;;;4972464;28;20023;-38
2023/10/31 10:22:46;;;;;;;1.75;0.60;;;14.70;99.90;;;;;;4971262;28;20034;-39
2023/10/31 10:25:18;;;;;;;2.75;0.70;;;14.70;99.90;;;;;;4972311;28;20031;-37
2023/10/31 10:27:44;;;;;;;3.65;0.70;;;14.70;99.90;;;;;;4972316;28;20029;-37
2023/10/31 10:30:12;;;;;;;2.42;0.60;;;14.70;99.90;;;;;;4972366;28;20502;-37
2023/10/31 10:32:37;;;;;;;3.53;0.70;;;14.70;99.90;;;;;;4972347;28;20500;-37
2023/10/31 10:35:04;;;;;;;1.52;0.70;;;14.70;99.90;;;;;;4972325;28;20122;-37
2023/10/31 10:37:30;;;;;;;1.58;0.90;;;14.70;99.90;;;;;;4972283;28;20014;-37
2023/10/31 10:39:59;;;;;;;2.58;0.65;;;14.70;99.90;;;;;;4972209;28;20026;-37
2023/10/31 10:43:03;;;;;;;3.45;0.70;;;14.70;99.90;;;;;;4972273;28;20035;-37
2023/10/31 10:45:29;;;;;;;3.00;1.00;;;14.70;99.90;;;;;;4969721;28;20110;-37
2023/10/31 10:48:01;;;;;;;2.25;0.50;;;14.70;99.90;;;;;;4974348;28;20035;-37
2023/10/31 10:50:30;;;;;;;2.78;0.77;;;14.80;99.90;;;;;;4975814;28;20043;-37
2023/10/31 10:53:08;;;;;;;2.72;0.88;;;14.80;99.90;;;;;;4976050;28;20023;-37
2023/10/31 10:55:39;;;;;;;2.40;0.70;;;14.80;99.90;;;;;;4974606;28;20534;-37
2023/10/31 10:58:13;;;;;;;3.15;0.77;;;14.80;99.90;;;;;;4974607;28;20027;-37
2023/10/31 11:00:40;;;;;;;3.47;0.45;;;14.80;99.90;;;;;;4975866;28;20035;-37
2023/10/31 11:03:07;;;;;;;1.85;0.70;;;14.80;99.90;;;;;;4975716;28;20027;-37
2023/10/31 11:05:35;;;;;;;1.83;0.60;;;14.80;99.90;;;;;;4975585;28;20026;-37
2023/10/31 11:08:02;;;;;;;1.85;0.60;;;14.90;99.90;;;;;;4975593;28;20057;-37
2023/10/31 11:10:29;;;;;;;2.75;0.52;;;14.90;99.90;;;;;;4974328;28;20027;-37
2023/10/31 11:12:56;;;;;;;3.13;0.63;;;14.90;99.90;;;;;;4975687;28;20031;-37
2023/10/31 11:15:23;;;;;;;1.92;0.60;;;14.90;99.90;;;;;;4975397;28;20055;-37
2023/10/31 11:17:50;;;;;;;2.25;0.45;;;14.90;99.90;;;;;;4975397;28;20038;-37
2023/10/31 11:20:16;;;;;;;2.13;0.70;;;14.90;99.90;;;;;;4975657;28;20094;-37
2023/10/31 11:22:44;;;;;;;2.67;0.52;;;14.90;99.90;;;;;;4975462;28;20049;-36
2023/10/31 11:25:14;;;;;;;1.25;0.60;;;15.00;99.90;;;;;;4975275;28;20050;-37
2023/10/31 11:27:41;;;;;;;2.90;0.50;;;14.90;99.90;;;;;;4975345;28;20082;-37
2023/10/31 11:30:19;;;;;;;2.10;0.70;;;14.90;99.90;;;;;;4975120;28;20041;-37
2023/10/31 11:32:51;;;;;;;1.48;0.63;;;14.90;99.90;;;;;;4975512;28;20106;-37
2023/10/31 11:35:18;;;;;;;1.58;0.50;;;14.90;99.90;;;;;;4975175;28;20038;-37
2023/10/31 11:37:43;;;;;;;2.30;0.60;;;14.90;99.90;;;;;;4975224;28;20027;-37
2023/10/31 11:40:16;;;;;;;1.15;0.43;;;14.90;99.90;;;;;;4975215;28;20476;-37
2023/10/31 11:42:42;;;;;;;1.23;0.50;;;15.00;99.90;;;;;;4975088;28;20030;-37
2023/10/31 11:45:09;;;;;;;1.10;0.47;;;14.90;99.90;;;;;;4974908;28;20034;-37
2023/10/31 11:47:50;;;;;;;0.93;0.40;;;15.00;99.90;;;;;;4974933;28;20510;-37
2023/10/31 11:50:17;;;;;;;1.48;0.50;;;14.90;99.90;;;;;;4974795;28;20045;-37
2023/10/31 11:52:43;;;;;;;1.60;0.50;;;14.90;99.90;;;;;;4974914;28;20055;-37
2023/10/31 11:55:12;;;;;;;1.23;0.50;;;14.90;99.90;;;;;;4974699;28;20464;-37
2023/10/31 11:57:41;;;;;;;1.25;0.60;;;15.00;99.90;;;;;;4974611;28;20069;-37
2023/10/31 12:00:19;;;;;;;1.50;0.63;;;14.90;99.90;;;;;;4974866;28;20039;-36
2023/10/31 12:03:00;;;;;;;0.77;0.40;;;14.90;99.90;;;;;;4974807;28;20029;-34
2023/10/31 12:05:26;;;;;;;1.15;0.50;;;14.90;99.90;;;;;;4974546;28;20045;-34
2023/10/31 12:07:51;;;;;;;1.88;0.80;;;14.90;99.90;;;;;;4974883;28;20019;-35
2023/10/31 12:10:30;;;;;;;1.52;0.50;;;14.90;99.90;;;;;;4974618;28;20037;-35
2023/10/31 12:12:58;;;;;;;1.30;0.50;;;14.90;99.90;;;;;;4974639;28;20026;-37
2023/10/31 12:15:24;;;;;;;1.05;0.30;;;14.90;99.90;;;;;;4974413;28;20033;-34
2023/10/31 12:17:50;;;;;;;1.67;0.50;;;14.90;99.90;;;;;;4974373;28;20031;-34
2023/10/31 12:20:18;;;;;;;1.55;0.40;;;14.80;99.90;;;;;;4974274;28;20037;-35
2023/10/31 12:22:44;;;;;;;4.88;0.77;;;14.90;99.90;;;;;;4974381;28;20051;-34
2023/10/31 12:25:11;;;;;;;1.90;0.60;;;14.80;99.90;;;;;;4974152;28;20085;-35
2023/10/31 12:27:49;;;;;;;1.85;0.57;;;14.80;99.90;;;;;;4974207;28;20117;-35
2023/10/31 12:30:17;;;;;;;2.20;0.40;;;14.80;99.90;;;;;;4974154;28;20034;-35
2023/10/31 12:32:44;;;;;;;0.93;0.43;;;14.90;99.90;;;;;;4974001;28;20035;-38
2023/10/31 12:35:16;;;;;;;0.70;0.30;;;14.90;99.90;;;;;;4974192;28;20018;-35
2023/10/31 12:37:46;;;;;;;0.50;0.40;;;14.80;99.90;;;;;;4973948;28;20018;-35
2023/10/31 12:40:18;;;;;;;3.33;0.70;;;14.80;99.90;;;;;;4973858;28;20030;-34
2023/10/31 12:42:44;;;;;;;1.67;0.60;;;14.90;99.90;;;;;;4973943;28;20023;-35
2023/10/31 12:45:11;;;;;;;0.70;0.40;;;14.90;99.90;;;;;;4973703;28;20023;-35
2023/10/31 12:47:38;;;;;;;0.90;0.50;;;14.80;99.90;;;;;;4973848;28;20118;-36